Koyo — JD2279 — position and weather

sailwx.info

Track history (hours):
 
Tides and Currents Weather Stations Pressure Air Temp Water Temp Dewpoint Dewpoint Depression Visibility Wind Speed Wind Dir Waves Ship Positions

Koyo

Last reported at 2016-Jul-01 08:11 UTC. Time now 2016-Jul-01 22:37 UTC.
Position N 33°54' E 134°48'.

Length 80 m; draft 3.7 m.

Type: Cargo ship. MMSI: 431301812.

Date/timePositionNaut miles runAvg speedWind from/ knotsBaromVisibWave heightAir tempDewpointWater temp
2016-Jul-01 08:11N 33°54' E 134°48'811.8
2016-Jul-01 07:29N 33°60' E 134°41'11 5.5
2016-Jul-01 05:32N 34°08' E 134°49'1312.0
2016-Jul-01 04:29N 34°18' E 134°58'1213.0
2016-Jul-01 03:33N 34°28' E 135°06'1212.4
2016-Jul-01 02:33N 34°38' E 135°15'1 1.4
2016-Jul-01 01:30N 34°40' E 135°14'0 0.0
2016-Jul-01 00:30N 34°40' E 135°14'0 0.0
2016-Jun-30 23:30N 34°40' E 135°14'1 1.3
2016-Jun-30 22:33N 34°39' E 135°15'8 8.3
2016-Jun-30 21:33N 34°35' E 135°06'10 9.4
2016-Jun-30 20:28N 34°35' E 134°54'5 0.1
2016-Jun-29 06:16N 34°34' E 134°48'1114.0
2016-Jun-29 05:29N 34°37' E 135°01'1112.0
2016-Jun-29 04:33N 34°37' E 135°15'9 7.7
2016-Jun-29 03:25N 34°38' E 135°25'0 0.0
2016-Jun-29 02:31N 34°38' E 135°25'0 0.0
2016-Jun-29 01:33N 34°38' E 135°25'9 9.0
2016-Jun-29 00:33N 34°40' E 135°14'0 0.0
2016-Jun-28 23:32N 34°40' E 135°14'1 0.9
2016-Jun-28 22:28N 34°39' E 135°15'0 0.0
2016-Jun-28 21:28N 34°39' E 135°15'4 4.2
2016-Jun-28 20:33N 34°36' E 135°11'1110.9
2016-Jun-28 19:30N 34°36' E 134°57'3 0.1
2016-Jun-27 05:33N 34°36' E 134°54'1312.9
2016-Jun-27 04:33N 34°36' E 135°10'1212.3
2016-Jun-27 03:33N 34°38' E 135°24'1 0.7
2016-Jun-27 02:31N 34°38' E 135°25'6 6.2
2016-Jun-27 01:33N 34°38' E 135°18'3 3.1
2016-Jun-27 00:30N 34°39' E 135°14'0 0.0
2016-Jun-26 23:30N 34°39' E 135°14'2 2.4
2016-Jun-26 22:33N 34°41' E 135°13'0 0.0
2016-Jun-26 21:26N 34°41' E 135°13'0 0.0
2016-Jun-26 20:32N 34°41' E 135°13'0 0.0
2016-Jun-26 19:32N 34°41' E 135°13'0 0.0
2016-Jun-26 18:32N 34°41' E 135°13'0 0.0
2016-Jun-26 17:26N 34°41' E 135°13'0 0.0
2016-Jun-26 16:32N 34°41' E 135°13'0 0.0
2016-Jun-26 15:32N 34°41' E 135°13'0 0.0
2016-Jun-26 14:32N 34°41' E 135°13'0 0.0
2016-Jun-26 13:32N 34°41' E 135°13'0 0.0
2016-Jun-26 12:32N 34°41' E 135°13'0 0.0
2016-Jun-26 11:32N 34°41' E 135°13'0 0.0
2016-Jun-26 10:32N 34°41' E 135°13'0 0.0
2016-Jun-26 09:32N 34°41' E 135°13'0 0.0
2016-Jun-26 08:32N 34°41' E 135°13'0 0.0
2016-Jun-26 07:32N 34°41' E 135°13'0 0.0
2016-Jun-26 06:20N 34°41' E 135°13'0 0.0
2016-Jun-26 05:32N 34°41' E 135°13'0 0.0
2016-Jun-26 04:32N 34°41' E 135°13'0 0.0
2016-Jun-26 03:26N 34°41' E 135°13'0 0.0
2016-Jun-26 02:20N 34°41' E 135°13'0 0.0
2016-Jun-26 01:32N 34°41' E 135°13'0 0.0
2016-Jun-26 00:32N 34°41' E 135°13'0 0.0
2016-Jun-25 23:32N 34°41' E 135°13'0 0.0
2016-Jun-25 22:26N 34°41' E 135°13'0 0.0
2016-Jun-25 21:32N 34°41' E 135°13'0 0.0
2016-Jun-25 20:26N 34°41' E 135°13'0 0.0
2016-Jun-25 19:32N 34°41' E 135°13'0 0.0
2016-Jun-25 18:32N 34°41' E 135°13'0 0.0
2016-Jun-25 17:32N 34°41' E 135°13'0 0.0
2016-Jun-25 16:32N 34°41' E 135°13'4 4.5
2016-Jun-25 15:33N 34°37' E 135°12'1010.5
2016-Jun-25 14:33N 34°37' E 134°59'34 1.8
2016-Jun-24 19:19N 34°05' E 134°45'1011.9
2016-Jun-24 18:28N 34°12' E 134°54'1111.5
2016-Jun-24 17:33N 34°21' E 134°60'1111.4
2016-Jun-24 16:33N 34°30' E 135°08'10 9.9
2016-Jun-24 15:33N 34°38' E 135°15'1 1.4
2016-Jun-24 14:31N 34°40' E 135°14'0 0.0
2016-Jun-24 13:31N 34°40' E 135°14'0 0.0
2016-Jun-24 12:25N 34°40' E 135°14'0 0.0
2016-Jun-24 11:31N 34°40' E 135°14'0 0.3
2016-Jun-24 10:33N 34°39' E 135°15'9 6.8
2016-Jun-24 09:15N 34°38' E 135°25'3 4.1
2016-Jun-24 08:33N 34°37' E 135°22'6 6.0
2016-Jun-24 07:29N 34°39' E 135°14'1 0.3
2016-Jun-24 04:29N 34°39' E 135°15'0 0.1
2016-Jun-24 03:29N 34°39' E 135°15'0 0.0
2016-Jun-24 02:23N 34°39' E 135°15'0 0.0
2016-Jun-24 01:29N 34°39' E 135°15'0 0.0
2016-Jun-24 00:23N 34°39' E 135°15'3 3.2
2016-Jun-23 23:33N 34°37' E 135°12'1110.4
2016-Jun-23 22:32N 34°37' E 134°59'7 0.2
2016-Jun-22 06:33N 34°35' E 134°51'9 8.9
2016-Jun-22 05:33N 34°37' E 135°02'1110.6
2016-Jun-22 04:34N 34°38' E 135°15'3 2.8
2016-Jun-22 03:30N 34°40' E 135°13'0 0.0
2016-Jun-22 02:33N 34°40' E 135°13'2 1.0
2016-Jun-22 01:05N 34°40' E 135°14'0 0.3
2016-Jun-22 00:33N 34°39' E 135°15'1 0.8
2016-Jun-21 23:30N 34°39' E 135°15'4 4.3
2016-Jun-21 22:33N 34°36' E 135°11'1010.1
2016-Jun-21 21:33N 34°37' E 134°59'  
Track history (hours):
 
Tides and Currents Weather Stations Pressure Air Temp Water Temp Dewpoint Dewpoint Depression Visibility Wind Speed Wind Dir Waves Ship Positions

Koyo

Last reported at 2016-Jul-01 08:11 UTC. Time now 2016-Jul-01 22:37 UTC.
Position N 33°54' E 134°48'.

Length 80 m; draft 3.7 m.

Type: Cargo ship. MMSI: 431301812.

Date/timePositionNaut miles runAvg speedWind from/ knotsBaromVisibWave heightAir tempDewpointWater temp
2016-Jul-01 08:11N 33°54' E 134°48'811.8
2016-Jul-01 07:29N 33°60' E 134°41'11 5.5
2016-Jul-01 05:32N 34°08' E 134°49'1312.0
2016-Jul-01 04:29N 34°18' E 134°58'1213.0
2016-Jul-01 03:33N 34°28' E 135°06'1212.4
2016-Jul-01 02:33N 34°38' E 135°15'1 1.4
2016-Jul-01 01:30N 34°40' E 135°14'0 0.0
2016-Jul-01 00:30N 34°40' E 135°14'0 0.0
2016-Jun-30 23:30N 34°40' E 135°14'1 1.3
2016-Jun-30 22:33N 34°39' E 135°15'8 8.3
2016-Jun-30 21:33N 34°35' E 135°06'10 9.4
2016-Jun-30 20:28N 34°35' E 134°54'5 0.1
2016-Jun-29 06:16N 34°34' E 134°48'1114.0
2016-Jun-29 05:29N 34°37' E 135°01'1112.0
2016-Jun-29 04:33N 34°37' E 135°15'9 7.7
2016-Jun-29 03:25N 34°38' E 135°25'0 0.0
2016-Jun-29 02:31N 34°38' E 135°25'0 0.0
2016-Jun-29 01:33N 34°38' E 135°25'9 9.0
2016-Jun-29 00:33N 34°40' E 135°14'0 0.0
2016-Jun-28 23:32N 34°40' E 135°14'1 0.9
2016-Jun-28 22:28N 34°39' E 135°15'0 0.0
2016-Jun-28 21:28N 34°39' E 135°15'4 4.2
2016-Jun-28 20:33N 34°36' E 135°11'1110.9
2016-Jun-28 19:30N 34°36' E 134°57'3 0.1
2016-Jun-27 05:33N 34°36' E 134°54'1312.9
2016-Jun-27 04:33N 34°36' E 135°10'1212.3
2016-Jun-27 03:33N 34°38' E 135°24'1 0.7
2016-Jun-27 02:31N 34°38' E 135°25'6 6.2
2016-Jun-27 01:33N 34°38' E 135°18'3 3.1
2016-Jun-27 00:30N 34°39' E 135°14'0 0.0
2016-Jun-26 23:30N 34°39' E 135°14'2 2.4
2016-Jun-26 22:33N 34°41' E 135°13'0 0.0
2016-Jun-26 21:26N 34°41' E 135°13'0 0.0
2016-Jun-26 20:32N 34°41' E 135°13'0 0.0
2016-Jun-26 19:32N 34°41' E 135°13'0 0.0
2016-Jun-26 18:32N 34°41' E 135°13'0 0.0
2016-Jun-26 17:26N 34°41' E 135°13'0 0.0
2016-Jun-26 16:32N 34°41' E 135°13'0 0.0
2016-Jun-26 15:32N 34°41' E 135°13'0 0.0
2016-Jun-26 14:32N 34°41' E 135°13'0 0.0
2016-Jun-26 13:32N 34°41' E 135°13'0 0.0
2016-Jun-26 12:32N 34°41' E 135°13'0 0.0
2016-Jun-26 11:32N 34°41' E 135°13'0 0.0
2016-Jun-26 10:32N 34°41' E 135°13'0 0.0
2016-Jun-26 09:32N 34°41' E 135°13'0 0.0
2016-Jun-26 08:32N 34°41' E 135°13'0 0.0
2016-Jun-26 07:32N 34°41' E 135°13'0 0.0
2016-Jun-26 06:20N 34°41' E 135°13'0 0.0
2016-Jun-26 05:32N 34°41' E 135°13'0 0.0
2016-Jun-26 04:32N 34°41' E 135°13'0 0.0
2016-Jun-26 03:26N 34°41' E 135°13'0 0.0
2016-Jun-26 02:20N 34°41' E 135°13'0 0.0
2016-Jun-26 01:32N 34°41' E 135°13'0 0.0
2016-Jun-26 00:32N 34°41' E 135°13'0 0.0
2016-Jun-25 23:32N 34°41' E 135°13'0 0.0
2016-Jun-25 22:26N 34°41' E 135°13'0 0.0
2016-Jun-25 21:32N 34°41' E 135°13'0 0.0
2016-Jun-25 20:26N 34°41' E 135°13'0 0.0
2016-Jun-25 19:32N 34°41' E 135°13'0 0.0
2016-Jun-25 18:32N 34°41' E 135°13'0 0.0
2016-Jun-25 17:32N 34°41' E 135°13'0 0.0
2016-Jun-25 16:32N 34°41' E 135°13'4 4.5
2016-Jun-25 15:33N 34°37' E 135°12'1010.5
2016-Jun-25 14:33N 34°37' E 134°59'34 1.8
2016-Jun-24 19:19N 34°05' E 134°45'1011.9
2016-Jun-24 18:28N 34°12' E 134°54'1111.5
2016-Jun-24 17:33N 34°21' E 134°60'1111.4
2016-Jun-24 16:33N 34°30' E 135°08'10 9.9
2016-Jun-24 15:33N 34°38' E 135°15'1 1.4
2016-Jun-24 14:31N 34°40' E 135°14'0 0.0
2016-Jun-24 13:31N 34°40' E 135°14'0 0.0
2016-Jun-24 12:25N 34°40' E 135°14'0 0.0
2016-Jun-24 11:31N 34°40' E 135°14'0 0.3
2016-Jun-24 10:33N 34°39' E 135°15'9 6.8
2016-Jun-24 09:15N 34°38' E 135°25'3 4.1
2016-Jun-24 08:33N 34°37' E 135°22'6 6.0
2016-Jun-24 07:29N 34°39' E 135°14'1 0.3
2016-Jun-24 04:29N 34°39' E 135°15'0 0.1
2016-Jun-24 03:29N 34°39' E 135°15'0 0.0
2016-Jun-24 02:23N 34°39' E 135°15'0 0.0
2016-Jun-24 01:29N 34°39' E 135°15'0 0.0
2016-Jun-24 00:23N 34°39' E 135°15'3 3.2
2016-Jun-23 23:33N 34°37' E 135°12'1110.4
2016-Jun-23 22:32N 34°37' E 134°59'7 0.2
2016-Jun-22 06:33N 34°35' E 134°51'9 8.9
2016-Jun-22 05:33N 34°37' E 135°02'1110.6
2016-Jun-22 04:34N 34°38' E 135°15'3 2.8
2016-Jun-22 03:30N 34°40' E 135°13'0 0.0
2016-Jun-22 02:33N 34°40' E 135°13'2 1.0
2016-Jun-22 01:05N 34°40' E 135°14'0 0.3
2016-Jun-22 00:33N 34°39' E 135°15'1 0.8
2016-Jun-21 23:30N 34°39' E 135°15'4 4.3
2016-Jun-21 22:33N 34°36' E 135°11'1010.1
2016-Jun-21 21:33N 34°37' E 134°59'  

Dump ship's entire track history